Time;durP1;ratioP1;P1;durP2;ratioP2;P2;SDS_P1;SDS_P2;PMS_P1;PMS_P2;Temp;Humidity;BMP_temperature;BMP_pressure;BME280_temperature;BME280_humidity;BME280_pressure;Samples;Min_cycle;Max_cycle;Signal;HPM_P1;HPM_P2
2022/01/10 00:02:12;;;;;;;0.20;0.10;;;;;;;3.50;100.00;99701.22;4995093;28;20531;-52
2022/01/10 00:04:39;;;;;;;0.20;0.20;;;;;;;3.60;100.00;99707.28;4981916;28;20533;-52
2022/01/10 00:07:06;;;;;;;0.20;0.10;;;;;;;3.53;100.00;99707.31;4994986;28;20450;-53
2022/01/10 00:09:33;;;;;;;0.20;0.10;;;;;;;3.48;100.00;99701.25;4988956;28;20454;-52
2022/01/10 00:11:59;;;;;;;0.20;0.10;;;;;;;3.69;100.00;99712.41;4991453;28;21041;-53
2022/01/10 00:14:26;;;;;;;0.20;0.10;;;;;;;3.60;100.00;99712.53;4988866;28;20478;-52
2022/01/10 00:16:53;;;;;;;0.20;0.10;;;;;;;3.51;100.00;99719.59;4996582;28;20449;-53
2022/01/10 00:19:20;;;;;;;0.20;0.10;;;;;;;3.52;100.00;99720.47;4988775;28;20454;-52
2022/01/10 00:21:46;;;;;;;0.20;0.10;;;;;;;3.63;100.00;99723.88;4987950;28;20469;-53
2022/01/10 00:24:13;;;;;;;0.20;0.10;;;;;;;3.71;100.00;99721.19;4994487;28;21112;-53
2022/01/10 00:26:40;;;;;;;0.20;0.10;;;;;;;3.72;100.00;99725.53;4981523;28;20482;-52
2022/01/10 00:29:06;;;;;;;0.20;0.10;;;;;;;3.67;100.00;99719.44;4981391;28;20825;-53
2022/01/10 00:31:33;;;;;;;0.30;0.27;;;;;;;3.64;100.00;99733.50;4981241;28;20534;-54
2022/01/10 00:34:00;;;;;;;0.20;0.10;;;;;;;3.76;100.00;99732.50;4994466;28;20496;-53
2022/01/10 00:36:26;;;;;;;0.20;0.10;;;;;;;3.81;100.00;99742.06;4994002;28;20484;-52
2022/01/10 00:38:53;;;;;;;0.20;0.10;;;;;;;3.85;100.00;99741.19;4981824;28;20476;-52
2022/01/10 00:41:20;;;;;;;0.20;0.10;;;;;;;3.74;100.00;99742.16;4994114;28;20500;-53
2022/01/10 00:43:48;;;;;;;0.20;0.10;;;;;;;3.79;100.00;99746.47;4987071;28;20485;-53
2022/01/10 00:46:19;;;;;;;0.20;0.10;;;;;;;3.69;100.00;99751.81;4989256;28;20445;-53
2022/01/10 00:48:45;;;;;;;0.20;0.10;;;;;;;3.70;100.00;99758.81;4994215;28;20464;-53
2022/01/10 00:51:12;;;;;;;0.20;0.20;;;;;;;3.71;100.00;99758.84;4980936;28;20458;-53
2022/01/10 00:53:44;;;;;;;0.20;0.10;;;;;;;3.75;100.00;99765.81;4994028;28;21028;-53
2022/01/10 00:56:10;;;;;;;0.20;0.10;;;;;;;3.79;100.00;99759.63;4991920;28;20445;-53
2022/01/10 00:58:37;;;;;;;0.20;0.10;;;;;;;3.85;100.00;99763.97;4983719;28;20454;-54
2022/01/10 01:01:04;;;;;;;0.20;0.20;;;;;;;3.82;100.00;99766.59;4994023;28;20453;-54
2022/01/10 01:03:32;;;;;;;0.40;0.40;;;;;;;3.81;100.00;99775.38;4984443;28;20490;-53
2022/01/10 01:05:58;;;;;;;0.20;0.10;;;;;;;3.85;100.00;99775.34;4990369;28;20496;-53
2022/01/10 01:08:27;;;;;;;0.20;0.10;;;;;;;3.90;100.00;99777.91;4994121;28;20499;-53
2022/01/10 01:13:56;;;;;;;0.20;0.10;;;;;;;3.76;100.00;99793.81;5007318;28;20444;-53
2022/01/10 01:17:09;;;;;;;0.20;0.10;;;;;;;3.75;100.00;99796.47;4987166;28;20445;-53
2022/01/10 01:24:31;;;;;;;0.20;0.10;;;;;;;3.72;100.00;99810.50;4985547;28;21018;-53
2022/01/10 01:26:59;;;;;;;0.20;0.10;;;;;;;3.74;100.00;99823.63;4980727;28;20478;-53
2022/01/10 01:29:28;;;;;;;0.20;0.10;;;;;;;3.72;100.00;99828.91;4993697;28;20446;-53
2022/01/10 01:31:56;;;;;;;0.20;0.10;;;;;;;3.62;100.00;99829.88;4990408;28;20470;-52
2022/01/10 01:34:24;;;;;;;0.20;0.10;;;;;;;3.70;100.00;99835.03;4984305;28;20462;-53
2022/01/10 01:36:54;;;;;;;0.20;0.10;;;;;;;3.62;100.00;99842.13;4993293;28;20453;-52
2022/01/10 01:39:24;;;;;;;0.20;0.10;;;;;;;3.72;100.00;99846.44;4982507;28;20454;-53
2022/01/10 01:41:56;;;;;;;0.20;0.10;;;;;;;3.68;100.00;99844.69;4992211;28;20477;-53
2022/01/10 01:44:23;;;;;;;0.20;0.10;;;;;;;3.64;100.00;99845.63;4993588;28;20493;-51
2022/01/10 01:46:49;;;;;;;0.20;0.10;;;;;;;3.66;100.00;99855.22;4979036;28;21029;-52
2022/01/10 01:49:16;;;;;;;0.20;0.10;;;;;;;3.69;100.00;99851.69;4993290;28;20458;-52
2022/01/10 01:51:43;;;;;;;0.20;0.10;;;;;;;3.72;100.00;99860.44;4987325;28;20517;-52
2022/01/10 01:54:11;;;;;;;0.20;0.20;;;;;;;3.71;100.00;99860.47;4986055;28;20446;-52
2022/01/10 01:56:39;;;;;;;0.20;0.10;;;;;;;3.63;100.00;99865.75;4987296;28;20484;-51
2022/01/10 01:59:06;;;;;;;0.20;0.10;;;;;;;3.63;100.00;99870.16;4986420;28;20946;-52
2022/01/10 02:01:33;;;;;;;0.20;0.10;;;;;;;3.60;100.00;99876.31;4993012;28;20851;-52
2022/01/10 02:03:59;;;;;;;0.20;0.10;;;;;;;3.55;100.00;99873.69;4980075;28;20490;-54
2022/01/10 02:06:27;;;;;;;0.20;0.10;;;;;;;3.65;100.00;99879.75;4980433;28;20487;-52
2022/01/10 02:08:54;;;;;;;0.20;0.10;;;;;;;3.74;100.00;99881.47;4980137;28;20501;-52
2022/01/10 02:11:20;;;;;;;0.20;0.10;;;;;;;3.72;100.00;99889.38;4992976;28;20853;-52
2022/01/10 02:13:47;;;;;;;0.20;0.10;;;;;;;3.77;100.00;99899.84;4993404;28;20445;-52
2022/01/10 02:16:20;;;;;;;0.20;0.10;;;;;;;3.76;100.00;99890.19;4991709;28;21010;-52
2022/01/10 02:18:49;;;;;;;0.20;0.10;;;;;;;3.80;100.00;99902.44;4995920;28;20872;-52
2022/01/10 02:21:16;;;;;;;0.20;0.10;;;;;;;3.86;100.00;99897.13;4982369;28;20469;-52
2022/01/10 02:23:44;;;;;;;0.20;0.10;;;;;;;3.84;100.00;99896.28;4993013;28;20496;-52
2022/01/10 02:26:10;;;;;;;0.20;0.10;;;;;;;3.81;100.00;99912.06;4985363;28;20528;-52
2022/01/10 02:28:37;;;;;;;0.20;0.20;;;;;;;3.73;100.00;99899.00;4993161;28;20465;-51
2022/01/10 02:31:04;;;;;;;0.20;0.10;;;;;;;3.53;100.00;99909.63;4996836;28;20500;-51
2022/01/10 02:33:31;;;;;;;0.20;0.10;;;;;;;3.54;100.00;99921.88;4984048;28;20485;-51
2022/01/10 02:36:23;;;;;;;0.30;0.20;;;;;;;3.61;100.00;99914.84;4997223;28;20453;-51
2022/01/10 02:38:56;;;;;;;0.20;0.10;;;;;;;3.74;100.00;99913.00;4996873;28;20460;-51
2022/01/10 02:41:27;;;;;;;0.20;0.10;;;;;;;3.64;100.00;99920.06;4995687;28;20465;-52
2022/01/10 02:43:55;;;;;;;0.20;0.10;;;;;;;3.63;100.00;99917.44;4985187;28;20908;-51
2022/01/10 02:46:23;;;;;;;0.20;0.10;;;;;;;3.61;100.00;99941.13;4997263;28;20822;-51
2022/01/10 02:48:50;;;;;;;0.20;0.10;;;;;;;3.55;100.00;99936.75;4988162;28;20454;-51
2022/01/10 02:51:18;;;;;;;0.20;0.10;;;;;;;3.48;100.00;99935.06;4992396;28;20473;-51
2022/01/10 02:53:44;;;;;;;0.20;0.10;;;;;;;3.41;100.00;99937.72;4996389;28;20464;-51
2022/01/10 02:56:11;;;;;;;0.30;0.20;;;;;;;3.43;100.00;99946.50;4993800;28;20842;-51
2022/01/10 02:58:38;;;;;;;0.20;0.10;;;;;;;3.38;100.00;99946.50;4985879;28;20512;-51
2022/01/10 03:01:05;;;;;;;0.20;0.10;;;;;;;3.46;100.00;99949.97;4996160;28;20488;-53
2022/01/10 03:03:32;;;;;;;0.20;0.10;;;;;;;3.35;100.00;99953.53;4987220;28;20497;-52
2022/01/10 03:06:00;;;;;;;0.20;0.10;;;;;;;3.23;100.00;99960.56;4992457;28;20485;-51
2022/01/10 03:08:29;;;;;;;0.20;0.10;;;;;;;3.12;100.00;99966.75;4996149;28;20457;-52
2022/01/10 03:10:55;;;;;;;0.20;0.10;;;;;;;3.13;100.00;99969.34;4986750;28;20437;-51
2022/01/10 03:13:22;;;;;;;0.20;0.10;;;;;;;3.18;100.00;99985.13;4985616;28;20454;-52
2022/01/10 03:15:49;;;;;;;0.20;0.10;;;;;;;3.11;100.00;99984.25;4993781;28;20537;-51
2022/01/10 03:18:16;;;;;;;0.20;0.10;;;;;;;3.47;100.00;99979.72;5004512;28;20454;-51
2022/01/10 03:20:43;;;;;;;0.20;0.10;;;;;;;3.44;100.00;99995.50;4982936;28;20985;-51
2022/01/10 03:23:09;;;;;;;0.70;0.70;;;;;;;3.44;100.00;99998.16;4995674;28;20501;-51
2022/01/10 03:25:36;;;;;;;0.20;0.10;;;;;;;3.56;100.00;100000.69;4991053;28;20861;-53
2022/01/10 03:28:04;;;;;;;0.30;0.20;;;;;;;3.48;100.00;100002.50;4987778;28;20453;-52
2022/01/10 03:30:31;;;;;;;0.20;0.10;;;;;;;3.48;100.00;100008.63;4995739;28;20450;-52
2022/01/10 03:33:01;;;;;;;0.20;0.20;;;;;;;3.42;100.00;100007.75;4984218;28;20478;-52
2022/01/10 03:35:28;;;;;;;0.20;0.10;;;;;;;3.21;100.00;100009.59;4981836;28;20446;-51
2022/01/10 03:37:54;;;;;;;0.20;0.10;;;;;;;3.27;100.00;100009.56;4995024;28;20500;-51
2022/01/10 03:40:21;;;;;;;0.20;0.10;;;;;;;3.12;100.00;100014.00;4988992;28;20454;-53
2022/01/10 03:42:47;;;;;;;0.20;0.10;;;;;;;3.23;100.00;100020.09;4988150;28;20508;-53
2022/01/10 03:45:14;;;;;;;0.20;0.10;;;;;;;3.19;100.00;100023.63;4995587;28;20497;-53
2022/01/10 03:47:41;;;;;;;0.20;0.10;;;;;;;3.13;100.00;100019.25;4983567;28;20462;-53
2022/01/10 03:50:08;;;;;;;0.20;0.10;;;;;;;3.18;100.00;100028.00;4994849;28;20450;-54
2022/01/10 03:52:35;;;;;;;0.20;0.10;;;;;;;3.30;100.00;100028.84;4995347;28;20535;-53
2022/01/10 03:55:02;;;;;;;0.20;0.10;;;;;;;3.16;100.00;100027.13;4992069;28;20457;-51
2022/01/10 03:57:28;;;;;;;0.20;0.10;;;;;;;3.14;100.00;100028.88;4982725;28;20462;-51
2022/01/10 03:59:55;;;;;;;0.20;0.10;;;;;;;3.11;100.00;100036.75;4994954;28;20460;-51
2022/01/10 04:02:24;;;;;;;0.47;0.47;;;;;;;3.04;100.00;100036.78;4995083;28;20893;-51
2022/01/10 04:04:51;;;;;;;0.20;0.10;;;;;;;3.01;100.00;100050.78;4981624;28;20493;-51
2022/01/10 04:07:18;;;;;;;0.20;0.10;;;;;;;3.16;100.00;100053.41;4995401;28;20457;-53
2022/01/10 04:09:47;;;;;;;0.30;0.20;;;;;;;3.09;100.00;100049.03;4982432;28;20484;-53
2022/01/10 04:12:14;;;;;;;0.20;0.10;;;;;;;3.00;100.00;100058.66;4994989;28;20582;-53
2022/01/10 04:14:41;;;;;;;0.20;0.10;;;;;;;2.93;100.00;100050.81;4987550;28;20944;-53
2022/01/10 04:17:08;;;;;;;0.20;0.10;;;;;;;3.02;100.00;100064.81;4998771;28;20926;-54
2022/01/10 04:19:34;;;;;;;0.20;0.10;;;;;;;3.12;100.00;100062.13;4987229;28;20509;-53
2022/01/10 04:22:03;;;;;;;0.20;0.10;;;;;;;3.03;100.00;100066.56;4990032;28;20547;-53
2022/01/10 04:24:30;;;;;;;0.20;0.10;;;;;;;3.01;100.00;100063.91;4994684;28;20528;-53
2022/01/10 04:26:57;;;;;;;0.20;0.10;;;;;;;3.05;100.00;100070.03;4981636;28;20510;-53
2022/01/10 04:29:24;;;;;;;0.20;0.10;;;;;;;2.93;100.00;100074.44;4994825;28;20515;-53
2022/01/10 04:31:50;;;;;;;0.20;0.10;;;;;;;2.86;100.00;100082.31;4992337;28;20825;-53
2022/01/10 04:34:17;;;;;;;0.20;0.10;;;;;;;2.76;100.00;100093.69;4983620;28;20449;-53
2022/01/10 04:36:44;;;;;;;0.20;0.10;;;;;;;2.91;100.00;100094.56;4994599;28;20449;-53
2022/01/10 04:39:10;;;;;;;0.20;0.10;;;;;;;2.84;100.00;100099.81;4986104;28;20502;-54
2022/01/10 04:41:39;;;;;;;0.20;0.10;;;;;;;2.83;100.00;100108.56;4989925;28;20469;-53
2022/01/10 04:44:07;;;;;;;0.20;0.10;;;;;;;2.70;100.00;100112.06;4994436;28;20493;-53
2022/01/10 04:46:34;;;;;;;0.20;0.10;;;;;;;2.75;100.00;100119.06;4981339;28;20458;-53
2022/01/10 04:49:02;;;;;;;0.20;0.10;;;;;;;2.72;100.00;100123.41;4994085;28;20450;-53
2022/01/10 04:51:29;;;;;;;0.20;0.10;;;;;;;2.79;100.00;100126.06;4991527;28;20489;-53
2022/01/10 04:53:56;;;;;;;0.20;0.10;;;;;;;2.93;100.00;100132.19;4984444;28;20496;-53
2022/01/10 04:56:23;;;;;;;0.20;0.10;;;;;;;2.98;100.00;100138.28;4991635;28;20459;-55
2022/01/10 04:58:51;;;;;;;0.20;0.10;;;;;;;2.92;100.00;100137.44;4984114;28;20865;-55
2022/01/10 05:01:18;;;;;;;0.20;0.10;;;;;;;3.02;100.00;100144.44;4994056;28;20473;-55
2022/01/10 05:03:46;;;;;;;0.20;0.10;;;;;;;3.01;100.00;100149.66;4983749;28;20450;-55
2022/01/10 05:06:12;;;;;;;0.20;0.10;;;;;;;3.05;100.00;100152.31;4991425;28;20460;-55
2022/01/10 05:08:39;;;;;;;0.53;0.47;;;;;;;3.18;100.00;100161.94;4994026;28;20453;-55
2022/01/10 05:11:06;;;;;;;0.20;0.10;;;;;;;3.18;100.00;100166.31;4985845;28;20449;-55
2022/01/10 05:13:33;;;;;;;0.20;0.10;;;;;;;3.18;100.00;100164.56;4993691;28;20931;-55
2022/01/10 05:16:00;;;;;;;0.20;0.10;;;;;;;3.19;100.00;100166.31;4981938;28;20453;-56
2022/01/10 05:18:27;;;;;;;0.20;0.10;;;;;;;3.37;100.00;100175.03;5001064;28;20457;-55
2022/01/10 05:20:54;;;;;;;0.20;0.10;;;;;;;3.37;100.00;100175.91;4980430;28;20496;-55
2022/01/10 05:23:21;;;;;;;0.20;0.10;;;;;;;3.38;100.00;100187.28;4993590;28;20461;-55
2022/01/10 05:25:47;;;;;;;0.20;0.10;;;;;;;3.30;100.00;100182.06;4987093;28;20528;-55
2022/01/10 05:28:19;;;;;;;0.20;0.10;;;;;;;3.29;100.00;100185.56;4986981;28;20453;-55
2022/01/10 05:30:47;;;;;;;0.20;0.10;;;;;;;3.48;100.00;100197.78;4993624;28;20488;-54
2022/01/10 05:33:14;;;;;;;0.20;0.10;;;;;;;3.51;100.00;100203.03;4992663;28;20524;-55
2022/01/10 05:35:44;;;;;;;0.20;0.10;;;;;;;3.53;100.00;100201.28;4981501;28;20450;-55
2022/01/10 05:38:11;;;;;;;0.20;0.10;;;;;;;3.83;100.00;100208.22;4993307;28;20449;-55
2022/01/10 05:40:39;;;;;;;0.20;0.10;;;;;;;3.66;100.00;100220.53;4984993;28;20482;-55
2022/01/10 05:43:05;;;;;;;0.20;0.10;;;;;;;3.55;100.00;100224.91;4989071;28;20891;-54
2022/01/10 05:45:32;;;;;;;0.20;0.10;;;;;;;3.51;100.00;100231.94;4993396;28;20526;-54
2022/01/10 05:48:07;;;;;;;0.20;0.10;;;;;;;3.50;100.00;100242.44;4980302;28;20446;-54
2022/01/10 05:50:36;;;;;;;0.20;0.10;;;;;;;3.53;100.00;100250.31;4993237;28;20523;-54
2022/01/10 05:53:04;;;;;;;1.27;1.27;;;;;;;3.59;100.00;100252.97;4988860;28;20494;-54
2022/01/10 05:55:30;;;;;;;0.20;0.10;;;;;;;3.50;100.00;100256.47;4984111;28;20939;-54
2022/01/10 05:57:57;;;;;;;0.20;0.10;;;;;;;3.47;100.00;100261.72;4979859;28;20830;-55
2022/01/10 06:00:24;;;;;;;0.20;0.20;;;;;;;3.51;100.00;100266.09;4992960;28;20508;-54
2022/01/10 06:02:51;;;;;;;0.20;0.10;;;;;;;3.45;100.00;100263.47;4988773;28;20471;-54
2022/01/10 06:05:18;;;;;;;0.20;0.10;;;;;;;3.51;100.00;100268.72;4984677;28;20499;-54
2022/01/10 06:07:45;;;;;;;0.20;0.10;;;;;;;3.51;100.00;100276.59;4992571;28;20453;-54
2022/01/10 06:10:12;;;;;;;0.20;0.10;;;;;;;3.61;100.00;100281.88;4983419;28;20458;-55
2022/01/10 06:12:39;;;;;;;1.13;1.13;;;;;;;3.59;100.00;100281.88;4992850;28;20830;-54
2022/01/10 06:15:06;;;;;;;0.20;0.10;;;;;;;3.54;100.00;100288.84;4982089;28;20454;-54
2022/01/10 06:17:33;;;;;;;0.20;0.10;;;;;;;3.51;100.00;100289.75;4999840;28;20512;-55
2022/01/10 06:20:00;;;;;;;0.20;0.20;;;;;;;3.43;100.00;100295.91;4981710;28;20461;-54
2022/01/10 06:22:27;;;;;;;0.20;0.10;;;;;;;3.66;100.00;100296.75;4991297;28;20939;-54
2022/01/10 06:24:54;;;;;;;0.20;0.10;;;;;;;4.07;100.00;100309.84;4992933;28;20489;-55
2022/01/10 06:27:21;;;;;;;0.20;0.10;;;;;;;3.66;100.00;100316.91;4979927;28;20520;-54
2022/01/10 06:29:48;;;;;;;0.20;0.10;;;;;;;3.58;100.00;100319.53;4993058;28;20488;-54
2022/01/10 06:32:14;;;;;;;0.20;0.10;;;;;;;3.58;100.00;100327.44;4987414;28;20502;-54
2022/01/10 06:34:41;;;;;;;0.20;0.10;;;;;;;3.38;100.00;100329.16;4985874;28;20449;-55
2022/01/10 06:37:07;;;;;;;0.20;0.10;;;;;;;3.23;100.00;100325.63;4992980;28;20453;-54
2022/01/10 06:39:34;;;;;;;0.20;0.10;;;;;;;3.17;100.00;100336.13;4980461;28;20454;-53
2022/01/10 06:42:01;;;;;;;0.20;0.10;;;;;;;3.06;100.00;100345.72;4992298;28;20481;-54
2022/01/10 06:44:29;;;;;;;0.20;0.10;;;;;;;2.97;100.00;100341.31;4992450;28;20914;-54
2022/01/10 06:46:57;;;;;;;0.20;0.10;;;;;;;3.14;100.00;100348.34;4979519;28;20449;-54
2022/01/10 06:49:23;;;;;;;0.20;0.10;;;;;;;2.95;100.00;100363.19;4992539;28;20944;-54
2022/01/10 06:51:50;;;;;;;0.20;0.10;;;;;;;2.76;100.00;100361.38;4979545;28;20485;-54
2022/01/10 06:54:18;;;;;;;0.20;0.10;;;;;;;2.53;100.00;100367.38;4989205;28;20458;-53
2022/01/10 06:56:49;;;;;;;0.20;0.20;;;;;;;2.48;100.00;100371.75;4985354;28;20537;-54
2022/01/10 06:59:15;;;;;;;0.20;0.10;;;;;;;2.45;100.00;100376.06;4986898;28;20449;-54
2022/01/10 07:01:42;;;;;;;0.20;0.17;;;;;;;2.35;100.00;100383.03;4992410;28;20473;-54
2022/01/10 07:04:09;;;;;;;0.27;0.20;;;;;;;2.30;100.00;100387.34;4979478;28;20514;-54
2022/01/10 07:06:36;;;;;;;0.20;0.10;;;;;;;2.30;100.00;100388.22;4992681;28;20465;-54
2022/01/10 07:09:02;;;;;;;0.20;0.10;;;;;;;2.13;100.00;100389.88;4991441;28;20453;-54
2022/01/10 07:11:29;;;;;;;0.20;0.13;;;;;;;2.01;100.00;100397.66;4984105;28;20493;-54
2022/01/10 07:13:56;;;;;;;0.20;0.20;;;;;;;1.98;100.00;100393.25;4994353;28;20450;-54
2022/01/10 07:16:22;;;;;;;0.20;0.20;;;;;;;1.90;100.00;100408.03;4988551;28;20444;-54
2022/01/10 07:18:49;;;;;;;0.20;0.10;;;;;;;1.88;100.00;100406.28;4998677;28;20461;-54
2022/01/10 07:21:15;;;;;;;0.20;0.10;;;;;;;1.88;100.00;100412.38;4984988;28;20887;-55
2022/01/10 07:23:42;;;;;;;0.20;0.10;;;;;;;2.16;100.00;100418.72;4995814;28;20519;-54
2022/01/10 07:26:09;;;;;;;0.20;0.10;;;;;;;1.99;100.00;100428.22;4987340;28;20533;-54
2022/01/10 07:28:35;;;;;;;0.20;0.10;;;;;;;1.95;100.00;100437.81;4991505;28;20500;-54
2022/01/10 07:31:02;;;;;;;0.20;0.13;;;;;;;1.92;100.00;100437.78;4995471;28;20453;-54
2022/01/10 07:33:29;;;;;;;0.20;0.10;;;;;;;1.83;100.00;100447.28;4982620;28;20457;-54
2022/01/10 07:35:59;;;;;;;0.20;0.10;;;;;;;1.71;100.00;100450.66;4995838;28;20452;-54
2022/01/10 07:38:26;;;;;;;0.20;0.10;;;;;;;1.73;100.00;100455.06;4992701;28;20455;-54
2022/01/10 07:40:53;;;;;;;0.20;0.10;;;;;;;1.96;100.00;100460.53;4986070;28;20942;-55
2022/01/10 07:43:19;;;;;;;0.20;0.10;;;;;;;1.88;100.00;100466.53;4995394;28;20485;-54
2022/01/10 07:45:46;;;;;;;0.20;0.10;;;;;;;1.83;100.00;100466.50;4985524;28;20577;-54
2022/01/10 07:48:13;;;;;;;0.20;0.10;;;;;;;1.78;100.00;100474.34;4992470;28;20461;-55
2022/01/10 07:50:39;;;;;;;0.20;0.10;;;;;;;1.71;100.00;100479.50;4995512;28;20457;-54
2022/01/10 07:53:06;;;;;;;0.20;0.10;;;;;;;1.62;100.00;100485.50;4981736;28;20481;-54
2022/01/10 07:55:33;;;;;;;0.20;0.10;;;;;;;1.66;100.00;100489.94;4995244;28;20446;-54
2022/01/10 07:57:59;;;;;;;0.20;0.10;;;;;;;1.70;100.00;100493.47;4982046;28;20449;-54
2022/01/10 08:00:26;;;;;;;0.20;0.10;;;;;;;1.70;100.00;100496.06;4995152;28;20461;-54
2022/01/10 08:02:53;;;;;;;0.20;0.10;;;;;;;1.73;100.00;100499.59;4991712;28;20939;-54
2022/01/10 08:05:20;;;;;;;0.20;0.10;;;;;;;1.65;100.00;100498.66;4985968;28;20489;-54
2022/01/10 08:07:46;;;;;;;0.20;0.10;;;;;;;1.67;100.00;100512.66;4994898;28;20500;-55
2022/01/10 08:10:13;;;;;;;0.30;0.20;;;;;;;1.62;100.00;100516.06;4986575;28;20529;-55
2022/01/10 08:12:40;;;;;;;0.20;0.10;;;;;;;1.65;100.00;100516.13;4994688;28;20477;-54
2022/01/10 08:15:07;;;;;;;0.20;0.10;;;;;;;1.66;100.00;100523.13;4983364;28;20453;-54
2022/01/10 08:17:35;;;;;;;0.30;0.20;;;;;;;1.58;100.00;100532.63;5002168;28;20870;-55
2022/01/10 08:20:03;;;;;;;0.20;0.10;;;;;;;1.48;100.00;100535.13;4983250;28;20455;-54
2022/01/10 08:22:30;;;;;;;0.20;0.10;;;;;;;1.56;100.00;100534.34;4994012;28;20544;-53
2022/01/10 08:24:57;;;;;;;0.20;0.10;;;;;;;1.56;100.00;100542.19;4993708;28;20492;-53
2022/01/10 08:27:23;;;;;;;0.20;0.10;;;;;;;1.68;100.00;100543.22;4981284;28;20489;-53
2022/01/10 08:29:50;;;;;;;1.67;0.83;;;;;;;1.78;100.00;100547.72;4994782;28;20469;-53
2022/01/10 08:32:17;;;;;;;0.20;0.10;;;;;;;1.96;100.00;100552.25;4988681;28;20474;-53
2022/01/10 08:34:44;;;;;;;1.07;1.07;;;;;;;1.97;100.00;100554.03;4987462;28;20453;-53
2022/01/10 08:37:11;;;;;;;0.30;0.30;;;;;;;2.03;100.00;100567.16;4994327;28;20456;-54
2022/01/10 08:39:38;;;;;;;0.20;0.10;;;;;;;2.10;100.00;100580.34;4981646;28;20454;-53
2022/01/10 08:42:04;;;;;;;0.20;0.10;;;;;;;2.23;100.00;100591.00;4993990;28;21044;-53
2022/01/10 08:44:31;;;;;;;0.20;0.10;;;;;;;2.38;100.00;100588.50;4994530;28;20449;-52
2022/01/10 08:46:58;;;;;;;0.20;0.10;;;;;;;2.66;100.00;100587.00;4981273;28;20993;-52
2022/01/10 08:49:25;;;;;;;0.20;0.10;;;;;;;3.00;100.00;100579.38;4981341;28;20451;-52
2022/01/10 08:51:54;;;;;;;0.20;0.10;;;;;;;3.16;100.00;100591.75;4994015;28;20493;-53
2022/01/10 08:54:24;;;;;;;0.20;0.10;;;;;;;2.99;100.00;100593.38;4994082;28;20504;-53
2022/01/10 08:56:51;;;;;;;0.20;0.10;;;;;;;3.12;100.00;100596.94;4986497;28;20812;-53
2022/01/10 08:59:19;;;;;;;0.20;0.10;;;;;;;2.91;100.00;100595.06;4989135;28;20449;-53
2022/01/10 09:01:46;;;;;;;0.20;0.20;;;;;;;3.14;100.00;100596.09;4994028;28;20472;-53
2022/01/10 09:04:17;;;;;;;0.20;0.10;;;;;;;3.55;100.00;100598.06;4980779;28;20533;-54
2022/01/10 09:06:49;;;;;;;0.20;0.10;;;;;;;3.30;100.00;100598.84;4993893;28;20908;-53
2022/01/10 09:09:16;;;;;;;0.20;0.10;;;;;;;3.40;100.00;100611.13;4990849;28;20450;-53
2022/01/10 09:11:45;;;;;;;0.20;0.10;;;;;;;3.18;100.00;100608.41;4988214;28;20469;-53
2022/01/10 09:14:13;;;;;;;0.20;0.10;;;;;;;3.45;100.00;100623.44;4990158;28;20459;-52
2022/01/10 09:16:41;;;;;;;0.20;0.10;;;;;;;3.22;100.00;100625.91;4991527;28;20444;-54
2022/01/10 09:19:08;;;;;;;0.20;0.10;;;;;;;3.17;100.00;100629.41;4991415;28;21015;-52
2022/01/10 09:21:35;;;;;;;0.20;0.10;;;;;;;3.05;100.00;100635.44;4984977;28;20469;-53
2022/01/10 09:24:03;;;;;;;0.20;0.10;;;;;;;3.09;100.00;100639.84;4993408;28;20511;-53
2022/01/10 09:26:30;;;;;;;0.20;0.10;;;;;;;3.18;100.00;100642.53;4982209;28;20641;-53
2022/01/10 09:28:57;;;;;;;0.20;0.10;;;;;;;3.29;100.00;100650.50;4992154;28;20449;-53
2022/01/10 09:31:24;;;;;;;0.20;0.20;;;;;;;3.25;100.00;100662.72;4993436;28;20592;-53
2022/01/10 09:33:55;;;;;;;0.20;0.20;;;;;;;3.24;100.00;100666.19;4980462;28;20480;-52
2022/01/10 09:36:25;;;;;;;0.20;0.10;;;;;;;3.37;100.00;100675.06;4993364;28;20446;-53
2022/01/10 09:38:53;;;;;;;0.30;0.20;;;;;;;3.38;100.00;100673.31;4987386;28;20477;-53
2022/01/10 09:41:20;;;;;;;0.20;0.10;;;;;;;3.40;100.00;100682.06;4987195;28;20477;-52
2022/01/10 09:44:02;;;;;;;0.20;0.10;;;;;;;3.80;100.00;100670.03;4992399;28;20453;-53
2022/01/10 09:46:31;;;;;;;0.20;0.10;;;;;;;4.03;100.00;100688.56;4980017;28;20544;-54
2022/01/10 09:49:00;;;;;;;0.20;0.10;;;;;;;3.91;100.00;100681.50;4993437;28;20481;-54
2022/01/10 09:51:28;;;;;;;0.20;0.10;;;;;;;3.93;100.00;100695.53;4990183;28;20529;-54
2022/01/10 09:53:57;;;;;;;0.20;0.10;;;;;;;3.92;100.00;100690.25;4983933;28;20500;-54
2022/01/10 09:56:24;;;;;;;0.20;0.10;;;;;;;3.85;100.00;100692.88;4989669;28;20509;-54
2022/01/10 09:58:53;;;;;;;0.20;0.10;;;;;;;4.10;100.00;100704.38;4983847;28;20453;-53
2022/01/10 10:01:20;;;;;;;0.20;0.10;;;;;;;4.01;100.00;100699.09;4992887;28;20473;-53
2022/01/10 10:03:48;;;;;;;0.20;0.10;;;;;;;4.14;100.00;100711.41;4982509;28;20524;-53
2022/01/10 10:06:17;;;;;;;0.20;0.10;;;;;;;3.88;100.00;100709.53;4991271;28;20567;-53
2022/01/10 10:08:44;;;;;;;0.20;0.10;;;;;;;3.82;100.00;100703.34;4993258;28;20460;-54
2022/01/10 10:11:12;;;;;;;0.20;0.10;;;;;;;3.87;100.00;100706.03;4987628;28;20449;-52
2022/01/10 10:13:55;;;;;;;0.20;0.10;;;;;;;4.37;100.00;100715.88;4992893;28;20828;-53
2022/01/10 10:16:23;;;;;;;0.30;0.20;;;;;;;3.87;100.00;100719.19;4985597;28;20747;-53
2022/01/10 10:18:50;;;;;;;0.20;0.10;;;;;;;3.92;100.00;100719.19;4995118;28;20950;-53
2022/01/10 10:21:19;;;;;;;0.20;0.20;;;;;;;4.37;100.00;100713.25;4982268;28;20482;-53
2022/01/10 10:23:48;;;;;;;0.43;0.43;;;;;;;4.22;100.00;100719.31;4992610;28;20508;-54
2022/01/10 10:26:21;;;;;;;0.20;0.10;;;;;;;4.15;100.00;100728.09;4983056;28;20494;-53
2022/01/10 10:28:49;;;;;;;0.20;0.10;;;;;;;4.53;100.00;100733.50;4990084;28;20446;-54
2022/01/10 10:31:41;;;;;;;0.30;0.20;;;;;;;4.41;100.00;100741.34;4992642;28;20532;-54
2022/01/10 10:34:09;;;;;;;0.20;0.10;;;;;;;4.79;100.00;100740.56;4981272;28;20441;-54
2022/01/10 10:36:37;;;;;;;0.20;0.10;;;;;;;4.67;100.00;100738.81;4979406;28;20936;-54
2022/01/10 10:39:10;;;;;;;0.20;0.10;;;;;;;4.66;100.00;100748.47;4992789;28;20453;-54
2022/01/10 10:41:38;;;;;;;0.20;0.10;;;;;;;4.61;100.00;100749.28;4989756;28;20474;-53
2022/01/10 10:44:05;;;;;;;0.20;0.10;;;;;;;4.42;100.00;100749.25;4982528;28;20453;-54
2022/01/10 10:46:32;;;;;;;2.80;2.60;;;;;;;4.73;100.00;100749.34;4992927;28;20497;-54
2022/01/10 10:49:03;;;;;;;0.20;0.10;;;;;;;4.68;100.00;100751.09;4986679;28;20513;-54
2022/01/10 10:51:36;;;;;;;0.20;0.10;;;;;;;4.72;100.00;100748.47;4993523;28;20476;-54
2022/01/10 10:54:06;;;;;;;0.20;0.10;;;;;;;4.98;100.00;100761.69;4996265;28;20449;-54
2022/01/10 10:56:38;;;;;;;0.20;0.20;;;;;;;5.15;100.00;100753.78;4991937;28;20454;-53
2022/01/10 10:59:07;;;;;;;0.20;0.10;;;;;;;4.82;100.00;100759.03;4988997;28;20481;-54
2022/01/10 11:01:38;;;;;;;0.20;0.10;;;;;;;4.86;100.00;100759.03;4996048;28;20991;-54
2022/01/10 11:04:10;;;;;;;0.20;0.10;;;;;;;5.22;100.00;100765.22;4983178;28;20960;-54
2022/01/10 11:06:39;;;;;;;0.20;0.10;;;;;;;5.25;100.00;100770.50;4996411;28;20497;-54
2022/01/10 11:09:12;;;;;;;3.10;1.07;;;;;;;5.01;100.00;100769.59;4994337;28;20993;-54
2022/01/10 11:11:41;;;;;;;0.20;0.10;;;;;;;5.38;100.00;100772.25;4990100;28;20461;-54
2022/01/10 11:14:11;;;;;;;0.20;0.10;;;;;;;5.30;99.73;100782.78;4991448;28;20485;-54
2022/01/10 11:16:39;;;;;;;0.20;0.10;;;;;;;5.51;100.00;100794.25;4992842;28;20445;-54
2022/01/10 11:19:21;;;;;;;0.20;0.10;;;;;;;5.31;100.00;100789.81;4994087;28;20948;-54
2022/01/10 11:22:03;;;;;;;0.20;0.10;;;;;;;5.34;100.00;100794.19;4989338;28;20465;-54
2022/01/10 11:24:53;;;;;;;0.20;0.10;;;;;;;5.32;99.32;100788.94;4995609;28;20446;-54
2022/01/10 11:27:30;;;;;;;0.30;0.27;;;;;;;5.25;99.84;100796.84;4982561;28;21028;-54
2022/01/10 11:29:57;;;;;;;0.20;0.10;;;;;;;5.55;100.00;100798.63;4995895;28;20456;-54
2022/01/10 11:32:54;;;;;;;4.03;1.03;;;;;;;5.34;100.00;100802.13;4982057;28;20476;-54
2022/01/10 11:35:47;;;;;;;0.20;0.10;;;;;;;5.38;100.00;100803.91;4989049;28;20450;-54
2022/01/10 11:38:50;;;;;;;0.80;0.80;;;;;;;5.50;100.00;100809.19;4990184;28;20449;-54
2022/01/10 11:41:17;;;;;;;0.20;0.10;;;;;;;5.24;100.00;100805.63;5004644;28;20531;-53